createdAt,value
2023-05-16T00:00:48.922Z,18.50
2023-05-16T00:03:16.017Z,18.50
2023-05-16T00:05:43.014Z,18.50
2023-05-16T00:08:09.987Z,18.50
2023-05-16T00:10:37.944Z,18.50
2023-05-16T00:13:05.082Z,18.50
2023-05-16T00:15:32.099Z,18.40
2023-05-16T00:17:59.759Z,18.40
2023-05-16T00:20:28.508Z,18.40
2023-05-16T00:22:56.254Z,18.40
2023-05-16T00:25:23.669Z,18.40
2023-05-16T00:27:50.740Z,18.30
2023-05-16T00:30:17.788Z,18.30
2023-05-16T00:32:45.539Z,18.30
2023-05-16T00:35:12.741Z,18.30
2023-05-16T00:37:40.024Z,18.20
2023-05-16T00:40:07.745Z,18.20
2023-05-16T00:42:36.370Z,18.20
2023-05-16T00:45:04.851Z,18.30
2023-05-16T00:47:33.265Z,18.20
2023-05-16T00:50:00.902Z,18.20
2023-05-16T00:52:28.753Z,18.20
2023-05-16T00:54:55.710Z,18.10
2023-05-16T00:57:23.437Z,18.10
2023-05-16T00:59:50.814Z,18.10
2023-05-16T01:02:18.209Z,18.10
2023-05-16T01:04:46.191Z,18.10
2023-05-16T01:07:13.198Z,18.00
2023-05-16T01:09:41.371Z,18.00
2023-05-16T01:12:38.751Z,18.00
2023-05-16T01:15:11.086Z,18.00
2023-05-16T01:17:54.681Z,18.00
2023-05-16T01:20:38.630Z,18.00
2023-05-16T01:23:05.855Z,17.90
2023-05-16T01:25:48.452Z,17.90
2023-05-16T01:28:17.678Z,17.90
2023-05-16T01:30:45.010Z,17.90
2023-05-16T01:33:12.766Z,17.80
2023-05-16T01:35:54.482Z,17.80
2023-05-16T01:38:36.753Z,17.80
2023-05-16T01:41:16.229Z,17.80
2023-05-16T01:43:46.650Z,17.80
2023-05-16T01:46:30.070Z,17.70
2023-05-16T01:49:25.610Z,17.70
2023-05-16T01:51:57.274Z,17.70
2023-05-16T01:54:26.577Z,17.60
2023-05-16T01:56:56.558Z,17.60
2023-05-16T01:59:26.375Z,17.50
2023-05-16T02:01:55.438Z,17.50
2023-05-16T02:04:22.597Z,17.50
2023-05-16T02:06:49.865Z,17.50
2023-05-16T02:09:17.070Z,17.40
2023-05-16T02:11:44.071Z,17.40
2023-05-16T02:14:11.057Z,17.40
2023-05-16T02:16:38.158Z,17.30
2023-05-16T02:19:05.190Z,17.30
2023-05-16T02:21:32.239Z,17.30
2023-05-16T02:23:59.184Z,17.30
2023-05-16T02:26:27.142Z,17.30
2023-05-16T02:28:54.525Z,17.30
2023-05-16T02:31:28.862Z,17.20
2023-05-16T02:33:56.048Z,17.20
2023-05-16T02:36:23.049Z,17.20
2023-05-16T02:38:50.116Z,17.20
2023-05-16T02:41:17.088Z,17.20
2023-05-16T02:43:46.802Z,17.20
2023-05-16T02:46:24.943Z,17.20
2023-05-16T02:48:52.302Z,17.10
2023-05-16T02:51:22.153Z,17.10
2023-05-16T02:53:50.819Z,17.10
2023-05-16T02:56:18.795Z,17.10
2023-05-16T02:58:50.640Z,17.10
2023-05-16T03:01:18.665Z,17.00
2023-05-16T03:03:45.956Z,17.00
2023-05-16T03:06:13.264Z,16.90
2023-05-16T03:08:40.360Z,16.90
2023-05-16T03:11:07.296Z,16.90
2023-05-16T03:13:34.258Z,16.90
2023-05-16T03:16:01.593Z,16.80
2023-05-16T03:18:28.706Z,16.80
2023-05-16T03:20:56.307Z,16.70
2023-05-16T03:23:24.511Z,16.70
2023-05-16T03:25:51.581Z,16.60
2023-05-16T03:28:21.411Z,16.60
2023-05-16T03:30:48.498Z,16.50
2023-05-16T03:33:15.557Z,16.50
2023-05-16T03:35:43.523Z,16.40
2023-05-16T03:38:10.709Z,16.40
2023-05-16T03:40:37.769Z,16.30
2023-05-16T03:43:04.855Z,16.30
2023-05-16T03:45:32.892Z,16.30
2023-05-16T03:48:00.425Z,16.30
2023-05-16T03:50:27.399Z,16.20
2023-05-16T03:52:54.949Z,16.20
2023-05-16T03:55:22.262Z,16.20
2023-05-16T03:57:50.287Z,16.20
2023-05-16T04:00:18.052Z,16.20
2023-05-16T04:02:45.405Z,16.20
2023-05-16T04:05:14.190Z,16.10
2023-05-16T04:07:41.591Z,16.10
2023-05-16T04:10:09.980Z,16.10
2023-05-16T04:12:37.254Z,16.10
2023-05-16T04:15:05.766Z,16.10
2023-05-16T04:17:33.577Z,16.10
2023-05-16T04:20:01.095Z,16.10
2023-05-16T04:22:28.015Z,16.10
2023-05-16T04:24:55.142Z,16.10
2023-05-16T04:27:22.450Z,16.20
2023-05-16T04:29:50.645Z,16.20
2023-05-16T04:32:18.360Z,16.20
2023-05-16T04:34:46.838Z,16.20
2023-05-16T04:37:14.221Z,16.20
2023-05-16T04:39:41.791Z,16.20
2023-05-16T04:42:08.966Z,16.20
2023-05-16T04:44:36.241Z,16.20
2023-05-16T04:47:03.220Z,16.20
2023-05-16T04:49:31.296Z,16.20
2023-05-16T04:51:58.516Z,16.20
2023-05-16T04:54:26.479Z,16.20
2023-05-16T04:56:54.059Z,16.20
2023-05-16T04:59:22.441Z,16.20
2023-05-16T05:01:49.708Z,16.20
2023-05-16T05:04:17.917Z,16.20
2023-05-16T05:06:45.451Z,16.20
2023-05-16T05:09:12.685Z,16.10
2023-05-16T05:11:39.711Z,16.10
2023-05-16T05:14:06.688Z,16.10
2023-05-16T05:16:33.722Z,16.10
2023-05-16T05:19:01.078Z,16.10
2023-05-16T05:21:28.142Z,16.10
2023-05-16T05:23:55.065Z,16.10
2023-05-16T05:26:22.356Z,16.10
2023-05-16T05:29:00.999Z,16.10
2023-05-16T05:31:36.108Z,16.10
2023-05-16T05:34:03.710Z,16.10
2023-05-16T05:36:31.280Z,16.10
2023-05-16T05:38:58.324Z,16.20
2023-05-16T05:41:26.438Z,16.20
2023-05-16T05:43:53.423Z,16.20
2023-05-16T05:46:20.640Z,16.20
2023-05-16T05:48:47.746Z,16.20
2023-05-16T05:51:15.917Z,16.20
2023-05-16T05:53:42.948Z,16.20
2023-05-16T05:56:09.994Z,16.20
2023-05-16T05:58:36.958Z,16.20
2023-05-16T06:01:04.246Z,16.20
2023-05-16T06:03:31.876Z,16.20
2023-05-16T06:06:00.534Z,16.20
2023-05-16T06:08:27.620Z,16.20
2023-05-16T06:10:54.626Z,16.30
2023-05-16T06:13:21.634Z,16.30
2023-05-16T06:15:52.661Z,16.30
2023-05-16T06:18:20.276Z,16.30
2023-05-16T06:20:48.993Z,16.30
2023-05-16T06:23:19.283Z,16.30
2023-05-16T06:25:48.659Z,16.30
2023-05-16T06:28:15.801Z,16.30
2023-05-16T06:30:43.809Z,16.30
2023-05-16T06:33:10.919Z,16.30
2023-05-16T06:35:38.420Z,16.30
2023-05-16T06:38:05.400Z,16.30
2023-05-16T06:40:32.572Z,16.30
2023-05-16T06:42:59.549Z,16.30
2023-05-16T06:45:27.075Z,16.30
2023-05-16T06:47:56.643Z,16.30
2023-05-16T06:50:24.703Z,16.30
2023-05-16T06:52:54.358Z,16.30
2023-05-16T06:55:21.781Z,16.30
2023-05-16T06:57:48.812Z,16.20
2023-05-16T07:00:16.312Z,16.20
2023-05-16T07:02:43.456Z,16.20
2023-05-16T07:05:10.690Z,16.20
2023-05-16T07:07:37.817Z,16.20
2023-05-16T07:10:05.175Z,16.10
2023-05-16T07:12:32.208Z,16.10
2023-05-16T07:14:59.774Z,16.10
2023-05-16T07:17:27.056Z,16.10
2023-05-16T07:19:54.046Z,16.10
2023-05-16T07:22:21.097Z,16.10
2023-05-16T07:24:48.138Z,16.00
2023-05-16T07:27:15.217Z,16.10
2023-05-16T07:29:42.296Z,16.00
2023-05-16T07:32:09.284Z,16.00
2023-05-16T07:34:36.371Z,16.00
2023-05-16T07:37:03.633Z,16.00
2023-05-16T07:39:30.766Z,16.00
2023-05-16T07:41:58.449Z,16.00
2023-05-16T07:44:27.267Z,16.00
2023-05-16T07:46:54.675Z,16.00
2023-05-16T07:49:23.210Z,16.00
2023-05-16T07:51:50.784Z,16.00
2023-05-16T07:54:18.019Z,16.00
2023-05-16T07:56:45.036Z,16.00
2023-05-16T07:59:12.556Z,16.10
2023-05-16T08:01:39.589Z,16.10
2023-05-16T08:04:06.930Z,16.10
2023-05-16T08:06:37.281Z,16.10
2023-05-16T08:09:04.812Z,16.10
2023-05-16T08:11:33.105Z,16.10
2023-05-16T08:14:00.221Z,16.20
2023-05-16T08:16:27.384Z,16.10
2023-05-16T08:18:54.547Z,16.20
2023-05-16T08:21:21.570Z,16.20
2023-05-16T08:23:49.131Z,16.20
2023-05-16T08:26:18.295Z,16.20
2023-05-16T08:28:46.103Z,16.30
2023-05-16T08:31:13.246Z,16.30
2023-05-16T08:33:40.412Z,16.30
2023-05-16T08:36:08.017Z,16.30
2023-05-16T08:38:35.089Z,16.30
2023-05-16T08:41:02.234Z,16.20
2023-05-16T08:43:29.658Z,16.20
2023-05-16T08:45:56.908Z,16.10
2023-05-16T08:48:26.668Z,16.10
2023-05-16T08:50:54.038Z,16.10
2023-05-16T08:53:33.117Z,16.20
2023-05-16T08:56:01.312Z,16.20
2023-05-16T08:58:30.252Z,16.20
2023-05-16T09:00:57.617Z,16.20
2023-05-16T09:03:25.583Z,16.20
2023-05-16T09:05:52.799Z,16.20
2023-05-16T09:08:20.340Z,16.20
2023-05-16T09:10:47.396Z,16.30
2023-05-16T09:13:15.155Z,16.30
2023-05-16T09:15:42.317Z,16.30
2023-05-16T09:18:14.224Z,16.30
2023-05-16T09:20:49.096Z,16.30
2023-05-16T09:23:23.944Z,16.40
2023-05-16T09:25:53.529Z,16.40
2023-05-16T09:28:20.788Z,16.50
2023-05-16T09:30:48.983Z,16.50
2023-05-16T09:33:16.400Z,16.60
2023-05-16T09:35:45.342Z,16.70
2023-05-16T09:38:18.890Z,16.70
2023-05-16T09:40:46.764Z,16.80
2023-05-16T09:43:17.677Z,16.80
2023-05-16T09:45:49.306Z,16.90
2023-05-16T09:48:18.114Z,16.80
2023-05-16T09:50:54.386Z,16.80
2023-05-16T09:53:29.043Z,16.90
2023-05-16T09:56:16.265Z,16.80
2023-05-16T09:58:46.021Z,16.90
2023-05-16T10:01:13.809Z,16.80
2023-05-16T10:03:43.914Z,16.90
2023-05-16T10:06:13.813Z,16.90
2023-05-16T10:08:43.151Z,16.80
2023-05-16T10:11:11.131Z,16.80
2023-05-16T10:13:39.938Z,16.80
2023-05-16T10:16:14.826Z,16.90
2023-05-16T10:18:43.493Z,16.90
2023-05-16T10:21:15.232Z,16.80
2023-05-16T10:23:44.011Z,16.80
2023-05-16T10:26:14.340Z,16.80
2023-05-16T10:28:43.827Z,16.80
2023-05-16T10:31:11.929Z,16.70
2023-05-16T10:33:39.749Z,16.70
2023-05-16T10:36:11.170Z,16.70
2023-05-16T10:38:40.193Z,16.80
2023-05-16T10:41:08.866Z,16.80
2023-05-16T10:43:36.854Z,16.90
2023-05-16T10:46:13.032Z,16.90
2023-05-16T10:48:41.549Z,17.00
2023-05-16T10:51:24.204Z,17.00
2023-05-16T10:53:55.523Z,17.10
2023-05-16T10:56:27.587Z,17.10
2023-05-16T10:58:56.119Z,17.20
2023-05-16T11:01:36.233Z,17.20
2023-05-16T11:04:06.654Z,17.20
2023-05-16T11:06:43.091Z,17.30
2023-05-16T11:09:16.108Z,17.30
2023-05-16T11:11:52.177Z,17.40
2023-05-16T11:14:21.958Z,17.40
2023-05-16T11:17:00.455Z,17.50
2023-05-16T11:19:35.877Z,17.50
2023-05-16T11:22:23.882Z,17.50
2023-05-16T11:25:07.097Z,17.60
2023-05-16T11:27:46.596Z,17.70
2023-05-16T11:30:19.553Z,17.80
2023-05-16T11:32:48.438Z,17.90
2023-05-16T11:35:17.946Z,18.10
2023-05-16T11:37:47.129Z,18.20
2023-05-16T11:40:15.845Z,18.30
2023-05-16T11:42:45.334Z,18.40
2023-05-16T11:45:17.884Z,18.60
2023-05-16T11:47:48.284Z,18.60
2023-05-16T11:50:20.974Z,18.70
2023-05-16T11:52:56.832Z,18.70
2023-05-16T11:55:41.091Z,18.80
2023-05-16T11:58:10.350Z,18.80
2023-05-16T12:00:37.571Z,18.80
2023-05-16T12:03:06.397Z,18.90
2023-05-16T12:05:35.361Z,18.90
2023-05-16T12:08:04.961Z,18.90
2023-05-16T12:10:34.800Z,18.90
2023-05-16T12:13:02.737Z,18.90
2023-05-16T12:15:30.269Z,18.90
2023-05-16T12:17:57.735Z,18.90
2023-05-16T12:20:26.332Z,18.90
2023-05-16T12:22:53.460Z,19.00
2023-05-16T12:25:30.222Z,18.90
2023-05-16T12:28:00.393Z,19.00
2023-05-16T12:30:30.550Z,19.00
2023-05-16T12:32:59.982Z,19.00
2023-05-16T12:35:33.335Z,19.10
2023-05-16T12:38:03.835Z,19.10
2023-05-16T12:40:31.271Z,19.00
2023-05-16T12:42:58.442Z,19.00
2023-05-16T12:45:28.090Z,19.00
2023-05-16T12:47:55.489Z,18.90
2023-05-16T12:50:25.031Z,18.90
2023-05-16T12:52:54.123Z,18.90
2023-05-16T12:55:22.976Z,18.80
2023-05-16T12:57:52.378Z,18.80
2023-05-16T13:00:21.259Z,18.80
2023-05-16T13:02:48.885Z,18.80
2023-05-16T13:05:17.574Z,18.80
2023-05-16T13:07:44.783Z,18.80
2023-05-16T13:10:12.818Z,18.80
2023-05-16T13:12:41.392Z,18.80
2023-05-16T13:15:10.489Z,18.90
2023-05-16T13:17:42.031Z,18.90
2023-05-16T13:20:10.368Z,18.90
2023-05-16T13:22:37.776Z,18.90
2023-05-16T13:25:06.857Z,18.90
2023-05-16T13:27:36.188Z,18.90
2023-05-16T13:30:04.346Z,18.90
2023-05-16T13:32:31.619Z,18.90
2023-05-16T13:34:58.740Z,18.90
2023-05-16T13:37:25.856Z,18.90
2023-05-16T13:39:54.911Z,18.80
2023-05-16T13:42:22.506Z,18.70
2023-05-16T13:44:50.119Z,18.70
2023-05-16T13:47:32.908Z,18.70
2023-05-16T13:50:10.113Z,18.70
2023-05-16T13:52:38.512Z,18.60
2023-05-16T13:55:06.529Z,18.60
2023-05-16T13:57:33.710Z,18.60
2023-05-16T14:02:40.591Z,18.50
2023-05-16T14:05:10.914Z,18.50
2023-05-16T14:07:38.225Z,18.50
2023-05-16T14:10:07.067Z,18.50
2023-05-16T14:12:34.467Z,18.50
2023-05-16T14:15:01.794Z,18.50
2023-05-16T14:17:35.150Z,18.50
2023-05-16T14:20:08.989Z,18.50
2023-05-16T14:22:36.621Z,18.50
2023-05-16T14:25:03.797Z,18.50
2023-05-16T14:27:30.860Z,18.50
2023-05-16T14:29:59.025Z,18.50
2023-05-16T14:32:26.182Z,18.50
2023-05-16T14:34:53.905Z,18.50
2023-05-16T14:37:21.082Z,18.60
2023-05-16T14:39:50.968Z,18.60
2023-05-16T14:42:18.294Z,18.60
2023-05-16T14:44:45.407Z,18.60
2023-05-16T14:47:13.821Z,18.60
2023-05-16T14:49:41.357Z,18.60
2023-05-16T14:52:08.307Z,18.60
2023-05-16T14:54:35.686Z,18.60
2023-05-16T14:57:04.083Z,18.60
2023-05-16T14:59:31.577Z,18.60
2023-05-16T15:01:59.541Z,18.60
2023-05-16T15:04:28.861Z,18.60
2023-05-16T15:06:56.005Z,18.60
2023-05-16T15:09:23.077Z,18.60
2023-05-16T15:11:50.035Z,18.60
2023-05-16T15:14:17.015Z,18.60
2023-05-16T15:16:44.149Z,18.50
2023-05-16T15:19:11.642Z,18.50
2023-05-16T15:21:38.924Z,18.50
2023-05-16T15:24:06.799Z,18.50
2023-05-16T15:26:35.306Z,18.50
2023-05-16T15:29:02.743Z,18.50
2023-05-16T15:31:32.252Z,18.50
2023-05-16T15:33:59.369Z,18.50
2023-05-16T15:36:27.375Z,18.50
2023-05-16T15:38:54.352Z,18.50
2023-05-16T15:41:43.249Z,18.50
2023-05-16T15:44:09.024Z,18.50
2023-05-16T15:46:36.160Z,18.50
2023-05-16T15:49:04.687Z,18.50
2023-05-16T15:51:32.211Z,18.60
2023-05-16T15:53:59.202Z,18.60
2023-05-16T15:56:26.478Z,18.60
2023-05-16T15:58:55.792Z,18.60
2023-05-16T16:01:22.893Z,18.70
2023-05-16T16:03:53.416Z,18.60
2023-05-16T16:06:23.568Z,18.70
2023-05-16T16:08:51.989Z,18.70
2023-05-16T16:11:25.157Z,18.70
2023-05-16T16:13:52.236Z,18.80
2023-05-16T16:16:20.796Z,18.80
2023-05-16T16:18:56.485Z,18.80
2023-05-16T16:21:24.994Z,18.80
2023-05-16T16:23:54.924Z,18.80
2023-05-16T16:26:23.330Z,18.90
2023-05-16T16:28:50.594Z,18.90
2023-05-16T16:31:18.944Z,18.80
2023-05-16T16:33:49.259Z,18.80
2023-05-16T16:36:27.726Z,18.80
2023-05-16T16:38:57.571Z,18.90
2023-05-16T16:41:25.602Z,18.90
2023-05-16T16:43:54.274Z,18.90
2023-05-16T16:46:24.600Z,19.00
2023-05-16T16:48:56.624Z,19.00
2023-05-16T16:51:23.839Z,19.10
2023-05-16T16:53:51.082Z,19.10
2023-05-16T16:56:18.177Z,19.10
2023-05-16T16:58:45.358Z,19.10
2023-05-16T17:01:12.945Z,19.10
2023-05-16T17:03:40.129Z,19.10
2023-05-16T17:06:08.237Z,19.10
2023-05-16T17:08:35.315Z,19.10
2023-05-16T17:11:05.317Z,19.10
2023-05-16T17:13:34.050Z,19.10
2023-05-16T17:16:04.712Z,19.10
2023-05-16T17:18:34.617Z,19.10
2023-05-16T17:21:02.058Z,19.00
2023-05-16T17:23:29.166Z,19.10
2023-05-16T17:25:56.344Z,19.00
2023-05-16T17:28:23.401Z,19.00
2023-05-16T17:30:50.644Z,19.00
2023-05-16T17:33:19.072Z,18.90
2023-05-16T17:35:46.350Z,18.90
2023-05-16T17:38:13.516Z,18.80
2023-05-16T17:40:40.611Z,18.90
2023-05-16T17:43:07.729Z,18.80
2023-05-16T17:45:34.812Z,18.80
2023-05-16T17:48:02.329Z,18.80
2023-05-16T17:50:30.255Z,18.80
2023-05-16T17:52:57.466Z,18.70
2023-05-16T17:55:24.784Z,18.70
2023-05-16T17:57:51.866Z,18.70
2023-05-16T18:00:19.511Z,18.70
2023-05-16T18:02:46.603Z,18.70
2023-05-16T18:05:14.089Z,18.70
2023-05-16T18:07:41.180Z,18.60
2023-05-16T18:10:10.802Z,18.60
2023-05-16T18:12:38.937Z,18.60
2023-05-16T18:15:06.882Z,18.60
2023-05-16T18:17:34.734Z,18.50
2023-05-16T18:20:09.584Z,18.50
2023-05-16T18:22:37.698Z,18.50
2023-05-16T18:25:06.085Z,18.50
2023-05-16T18:27:33.810Z,18.50
2023-05-16T18:30:01.810Z,18.40
2023-05-16T18:32:29.107Z,18.40
2023-05-16T18:34:57.733Z,18.40
2023-05-16T18:37:25.280Z,18.40
2023-05-16T18:39:53.716Z,18.40
2023-05-16T18:42:21.417Z,18.30
2023-05-16T18:44:50.379Z,18.30
2023-05-16T18:47:17.629Z,18.30
2023-05-16T18:49:44.727Z,18.20
2023-05-16T18:52:13.297Z,18.20
2023-05-16T18:54:41.078Z,18.20
2023-05-16T18:57:08.469Z,18.10
2023-05-16T18:59:36.094Z,18.00
2023-05-16T19:02:04.511Z,18.00
2023-05-16T19:04:31.815Z,17.90
2023-05-16T19:07:00.020Z,17.90
2023-05-16T19:09:28.734Z,17.90
2023-05-16T19:11:56.488Z,17.80
2023-05-16T19:14:24.670Z,17.70
2023-05-16T19:16:52.532Z,17.70
2023-05-16T19:19:19.886Z,17.60
2023-05-16T19:21:47.119Z,17.60
2023-05-16T19:24:14.290Z,17.50
2023-05-16T19:26:41.406Z,17.50
2023-05-16T19:29:11.001Z,17.40
2023-05-16T19:31:38.007Z,17.30
2023-05-16T19:34:05.714Z,17.30
2023-05-16T19:36:33.883Z,17.20
2023-05-16T19:39:00.878Z,17.10
2023-05-16T19:41:28.139Z,17.10
2023-05-16T19:43:55.413Z,17.00
2023-05-16T19:46:24.366Z,17.00
2023-05-16T19:48:51.493Z,17.00
2023-05-16T19:51:29.572Z,16.90
2023-05-16T19:54:04.790Z,16.80
2023-05-16T19:56:31.928Z,16.80
2023-05-16T19:58:59.131Z,16.70
2023-05-16T20:01:26.278Z,16.70
2023-05-16T20:03:53.536Z,16.60
2023-05-16T20:06:20.649Z,16.60
2023-05-16T20:08:47.775Z,16.60
2023-05-16T20:11:14.949Z,16.50
2023-05-16T20:13:41.918Z,16.50
2023-05-16T20:16:08.925Z,16.50
2023-05-16T20:18:36.407Z,16.40
2023-05-16T20:21:04.804Z,16.40
2023-05-16T20:23:32.221Z,16.40
2023-05-16T20:25:59.287Z,16.30
2023-05-16T20:28:26.238Z,16.30
2023-05-16T20:30:53.206Z,16.30
2023-05-16T20:33:20.546Z,16.30
2023-05-16T20:35:47.824Z,16.30
2023-05-16T20:38:16.800Z,16.20
2023-05-16T20:40:43.881Z,16.20
2023-05-16T20:43:13.071Z,16.20
2023-05-16T20:45:40.450Z,16.10
2023-05-16T20:48:07.800Z,16.10
2023-05-16T20:50:39.025Z,16.10
2023-05-16T20:53:06.237Z,16.10
2023-05-16T20:55:33.325Z,16.00
2023-05-16T20:58:00.915Z,16.00
2023-05-16T21:00:28.063Z,16.00
2023-05-16T21:02:55.373Z,15.90
2023-05-16T21:05:25.768Z,15.90
2023-05-16T21:07:54.381Z,15.90
2023-05-16T21:10:21.369Z,15.80
2023-05-16T21:12:48.474Z,15.80
2023-05-16T21:15:15.651Z,15.80
2023-05-16T21:17:42.913Z,15.70
2023-05-16T21:20:10.596Z,15.70
2023-05-16T21:22:37.739Z,15.70
2023-05-16T21:25:05.321Z,15.60
2023-05-16T21:27:33.029Z,15.60
2023-05-16T21:30:00.036Z,15.50
2023-05-16T21:32:32.390Z,15.50
2023-05-16T21:35:01.329Z,15.50
2023-05-16T21:37:28.687Z,15.40
2023-05-16T21:39:55.778Z,15.40
2023-05-16T21:42:23.887Z,15.40
2023-05-16T21:44:51.653Z,15.30
2023-05-16T21:47:18.747Z,15.30
2023-05-16T21:49:45.721Z,15.30
2023-05-16T21:52:14.335Z,15.20
2023-05-16T21:54:41.310Z,15.20
2023-05-16T21:57:08.326Z,15.20
2023-05-16T21:59:35.498Z,15.20
2023-05-16T22:02:02.497Z,15.10
2023-05-16T22:04:31.005Z,15.10
2023-05-16T22:06:58.002Z,15.00
2023-05-16T22:09:25.025Z,15.00
2023-05-16T22:11:52.116Z,15.00
2023-05-16T22:14:19.239Z,15.00
2023-05-16T22:16:46.316Z,15.00
2023-05-16T22:19:13.348Z,14.90
2023-05-16T22:21:40.518Z,14.90
2023-05-16T22:24:07.720Z,14.90
2023-05-16T22:26:35.281Z,14.90
2023-05-16T22:29:02.312Z,14.80
2023-05-16T22:31:29.391Z,14.80
2023-05-16T22:33:56.602Z,14.80
2023-05-16T22:36:23.678Z,14.70
2023-05-16T22:38:51.341Z,14.70
2023-05-16T22:41:18.564Z,14.60
2023-05-16T22:43:45.732Z,14.60
2023-05-16T22:46:13.307Z,14.60
2023-05-16T22:48:40.658Z,14.60
2023-05-16T22:51:07.873Z,14.50
2023-05-16T22:53:34.912Z,14.50
2023-05-16T22:56:02.238Z,14.50
2023-05-16T22:58:30.570Z,14.40
2023-05-16T23:00:58.196Z,14.40
2023-05-16T23:03:25.343Z,14.40
2023-05-16T23:05:52.715Z,14.30
2023-05-16T23:08:19.788Z,14.30
2023-05-16T23:10:46.909Z,14.30
2023-05-16T23:13:14.187Z,14.20
2023-05-16T23:15:42.279Z,14.10
2023-05-16T23:18:09.522Z,14.10
2023-05-16T23:20:36.688Z,14.00
2023-05-16T23:23:04.232Z,14.00
2023-05-16T23:25:31.580Z,14.00
2023-05-16T23:27:58.762Z,13.90
2023-05-16T23:30:25.785Z,13.90
2023-05-16T23:32:53.435Z,13.80
2023-05-16T23:35:20.662Z,13.80
2023-05-16T23:37:47.779Z,13.80
2023-05-16T23:40:14.799Z,13.70
2023-05-16T23:42:42.278Z,13.70
2023-05-16T23:45:10.373Z,13.60
2023-05-16T23:47:38.249Z,13.60
2023-05-16T23:50:06.136Z,13.50
2023-05-16T23:52:33.198Z,13.50
2023-05-16T23:55:00.262Z,13.40
2023-05-16T23:57:28.293Z,13.40
2023-05-16T23:59:55.471Z,13.30
